• Join FlightAware (Why Join?)
  • Login
  • US Flag 
02:37AM EST


 

Airport Tracker/Info


-or-


 

Live Flight TrackerFlight Track Log ✈ DAL369 ✈ 06-Oct-2013 ✈ KATL - MNMG / MGA

Flight Track Log - Related Links

Times and Time Zones

All times are in EDT time to prevent confusion due to time zone crossing. See the DAL369 flight status page for this flight to view local times or setup timezone preferences in your user account.

Time Position Orientation Groundspeed Altitude Reporting Facility
EDT Latitude Longitude Course Direction KTS MPH feet Rate Location/Type
07:14PM 33.6333 -84.4500 270° West 189 217 2,100  Level Atlanta TRACON
07:15PM 33.6333 -84.5167 270° West 218 251 3,700 2,100 Climbing Atlanta TRACON
07:16PM 33.5833 -84.5333 196° South 257 296 6,400 2,700 Climbing Atlanta TRACON
07:17PM 33.5056 -84.4747 148° Southeast 266 306 9,600 2,760 Climbing Atlanta Center
07:18PM 33.4389 -84.4122 142° Southeast 294 338 12,500 2,880 Climbing Atlanta Center
07:19PM 33.3658 -84.3747 157° South 289 333 15,400 2,580 Climbing Atlanta Center
07:20PM 33.2867 -84.3419 161° South 289 333 17,700 2,160 Climbing Atlanta Center
07:21PM 33.2053 -84.3044 159° South 310 357 19,800 1,920 Climbing Atlanta Center
07:22PM 33.1219 -84.2694 161° South 315 362 21,600 1,740 Climbing Atlanta Center
07:23PM 33.0344 -84.2347 162° South 327 376 23,300 1,500 Climbing Atlanta Center
07:24PM 32.9550 -84.1947 157° South 332 382 24,700 1,200 Climbing Atlanta Center
07:26PM 32.7672 -84.1156 160° South 350 403 27,000 960 Climbing Atlanta Center
07:27PM 32.6628 -84.0683 159° South 379 436 27,700 660 Climbing Atlanta Center
07:28PM 32.5564 -84.0242 161° South 403 464 28,400 600 Climbing Atlanta Center
07:31PM 32.2731 -83.9025 160° South 450 518 29,700 600 Climbing Jacksonville Center
07:32PM 32.1483 -83.8494 160° South 468 539 30,400 900 Climbing Jacksonville Center
07:33PM 32.0233 -83.7967 160° South 468 539 31,500 900 Climbing Jacksonville Center
07:34PM 31.9006 -83.7442 160° South 468 539 32,300 660 Climbing Jacksonville Center
07:35PM 31.7925 -83.6919 158° South 468 539 32,900 720 Climbing Jacksonville Center
07:36PM 31.6653 -83.6469 163° South 468 539 33,800 960 Climbing Jacksonville Center
07:37PM 31.5383 -83.5922 160° South 474 545 34,900 600 Climbing Jacksonville Center
07:38PM 31.4217 -83.5450 161° South 468 539 35,000  Climbing Jacksonville Center
07:39PM 31.3008 -83.4956 161° South 463 533 35,000  Level Jacksonville Center
07:40PM 31.1797 -83.4461 161° South 463 533 35,000  Level Jacksonville Center
07:41PM 31.0569 -83.3947 160° South 463 533 35,000  Level Jacksonville Center
07:42PM 30.9317 -83.3406 160° South 469 540 35,000  Level Jacksonville Center
07:43PM 30.8089 -83.2917 161° South 469 540 35,000  Level Jacksonville Center
07:44PM 30.6858 -83.2331 158° South 469 540 35,000  Level Jacksonville Center
07:45PM 30.5628 -83.1700 156° South 474 545 35,000  Level Jacksonville Center
07:46PM 30.4397 -83.1094 157° South 479 551 35,000  Level Jacksonville Center
07:47PM 30.3144 -83.0467 157° South 479 551 35,000 480 Level Jacksonville Center
07:48PM 30.1933 -82.9864 157° South 479 551 36,000 900 Climbing Jacksonville Center
07:49PM 30.0722 -82.9239 156° South 479 551 36,900 600 Climbing Jacksonville Center
07:50PM 29.9428 -82.8661 159° South 453 521 37,200 300 Climbing Jacksonville Center
07:51PM 29.8303 -82.8089 156° South 445 512 37,600 300 Climbing Jacksonville Center
07:52PM 29.7111 -82.7492 156° South 461 531 37,900 240 Climbing Jacksonville Center
07:53PM 29.5900 -82.7064 163° South 456 525 38,100 180 Climbing Jacksonville Center
07:54PM 29.4731 -82.6756 167° South 472 543 38,300 360 Climbing Jacksonville Center
07:55PM 29.3353 -82.6472 170° South 472 543 38,900 300 Climbing Jacksonville Center
07:56PM 29.2078 -82.6189 169° South 467 537 39,000  Climbing Jacksonville Center
07:57PM 29.0742 -82.5908 170° South 467 537 39,000  Level Jacksonville Center
07:58PM 28.9447 -82.5650 170° South 473 544 39,000  Level Jacksonville Center
07:59PM 28.8131 -82.5372 170° South 478 550 39,000  Level Jacksonville Center
08:00PM 28.6814 -82.5092 169° South 478 550 39,000 -60 Level Jacksonville Center
08:01PM 28.5686 -82.4861 170° South 473 544 38,900  Descending Jacksonville Center
08:02PM 28.4350 -82.4583 170° South 473 544 39,000  Climbing Jacksonville Center
08:03PM 28.2369 -82.4175 170° South 490 564 39,000  Level Miami Center
08:04PM 28.1044 -82.3897 170° South 485 558 39,000  Level Miami Center
08:05PM 27.9764 -82.3578 168° South 479 551 39,000  Level Miami Center
08:06PM 27.8464 -82.3186 165° South 484 557 39,000  Level Miami Center
08:07PM 27.7186 -82.2772 164° South 484 557 39,000  Level Miami Center
08:08PM 27.5761 -82.2353 165° South 484 557 39,000  Level Miami Center
08:09PM 27.4483 -82.1967 165° South 484 557 39,000  Level Miami Center
08:10PM 27.3203 -82.1603 166° South 484 557 39,000  Level Miami Center
08:11PM 27.2044 -82.1269 166° South 484 557 39,000  Level Miami Center
08:12PM 27.0619 -82.0856 165° South 484 557 39,000  Level Miami Center
08:13PM 26.9442 -82.0547 167° South 489 563 39,000  Level Miami Center
08:14PM 26.8142 -82.0164 165° South 484 557 39,000  Level Miami Center
08:15PM 26.6836 -81.9828 167° South 489 563 39,000  Level Miami Center
08:16PM 26.5536 -81.9422 164° South 489 563 39,000  Level Miami Center
08:17PM 26.4278 -81.9019 164° South 489 563 39,000  Level Miami Center
08:18PM 26.2975 -81.8639 165° South 484 557 39,000  Level Miami Center
08:19PM 26.1672 -81.8283 166° South 489 563 39,000  Level Miami Center
08:20PM 26.0369 -81.7883 165° South 489 563 39,000  Level Miami Center
08:21PM 25.9044 -81.7553 167° South 489 563 39,000  Level Miami Center
08:22PM 25.7597 -81.7125 165° South 489 563 39,000  Level Miami Center
08:23PM 25.6458 -81.6803 166° South 483 556 39,000  Level Miami Center
08:24PM 25.5178 -81.6428 165° South 483 556 39,000  Level Miami Center
08:25PM 25.3747 -81.6050 167° South 483 556 39,000  Level Miami Center
08:26PM 25.2444 -81.5656 165° South 483 556 39,000  Level Miami Center
08:27PM 25.1142 -81.5308 166° South 488 562 39,000  Level Miami Center
08:28PM 24.9836 -81.4936 166° South 483 556 39,000  Level Miami Center
08:29PM 24.8553 -81.4567 165° South 483 556 39,000  Level Miami Center
08:30PM 24.7269 -81.4222 166° South 483 556 39,000  Level Miami Center
08:31PM 24.5944 -81.3831 165° South 489 563 39,000  Level Miami Center
08:32PM 24.4661 -81.3489 166° South 489 563 39,000  Level Miami Center
08:33PM 24.3356 -81.3122 166° South 489 563 39,000  Level Miami Center
08:34PM 24.2072 -81.2758 165° South 489 563 39,000  Level Miami Center
08:35PM 24.0786 -81.2439 167° South 484 557 39,000  Level Miami Center
08:36PM 23.9433 -81.2325 176° South 484 557 39,000  Level Miami Center
08:38PM 23.7842 -81.2688 192° South  Level FlightAware Approximate
08:45PM 22.9379 -81.4500 180° South  Level FlightAware Approximate
08:46PM 22.8145 -81.4501 183° South  Level FlightAware Approximate
08:47PM 22.6912 -81.4569 183° South  Level FlightAware Approximate
08:48PM 22.5679 -81.4637 183° South  Level FlightAware Approximate
08:49PM 22.4446 -81.4705 183° South  Level FlightAware Approximate
08:50PM 22.3213 -81.4773 183° South  Level FlightAware Approximate
08:51PM 22.1980 -81.4840 183° South  Level FlightAware Approximate
08:52PM 22.0747 -81.4908 183° South  Level FlightAware Approximate
08:53PM 21.9514 -81.4975 183° South  Level FlightAware Approximate
08:54PM 21.8281 -81.5042 183° South  Level FlightAware Approximate
08:55PM 21.7048 -81.5110 183° South  Level FlightAware Approximate
08:56PM 21.5839 -81.5263 209° Southwest  Level FlightAware Approximate
08:57PM 21.4759 -81.5906 209° Southwest  Level FlightAware Approximate
08:58PM 21.3678 -81.6547 209° Southwest  Level FlightAware Approximate
08:59PM 21.2598 -81.7188 209° Southwest  Level FlightAware Approximate
09:00PM 21.1517 -81.7828 209° Southwest  Level FlightAware Approximate
09:01PM 21.0436 -81.8467 209° Southwest  Level FlightAware Approximate
09:02PM 20.9355 -81.9105 209° Southwest  Level FlightAware Approximate
09:03PM 20.8273 -81.9742 209° Southwest  Level FlightAware Approximate
09:04PM 20.7192 -82.0378 209° Southwest  Level FlightAware Approximate
09:05PM 20.6110 -82.1014 209° Southwest  Level FlightAware Approximate
09:06PM 20.5028 -82.1648 209° Southwest  Level FlightAware Approximate
09:07PM 20.3945 -82.2281 209° Southwest  Level FlightAware Approximate
09:08PM 20.2863 -82.2914 209° Southwest  Level FlightAware Approximate
09:09PM 20.1780 -82.3546 209° Southwest  Level FlightAware Approximate
09:10PM 20.0656 -82.4007 210° Southwest  Level FlightAware Approximate
09:11PM 19.9584 -82.4659 210° Southwest  Level FlightAware Approximate
09:12PM 19.8512 -82.5310 210° Southwest  Level FlightAware Approximate
09:13PM 19.7440 -82.5961 210° Southwest  Level FlightAware Approximate
09:14PM 19.6368 -82.6610 210° Southwest  Level FlightAware Approximate
09:15PM 19.5286 -82.7241 208° Southwest  Level FlightAware Approximate
09:16PM 19.4199 -82.7861 208° Southwest  Level FlightAware Approximate
09:17PM 19.3111 -82.8480 208° Southwest  Level FlightAware Approximate
09:18PM 19.2023 -82.9098 208° Southwest  Level FlightAware Approximate
09:19PM 19.0935 -82.9715 208° Southwest  Level FlightAware Approximate
09:20PM 18.9847 -83.0332 208° Southwest  Level FlightAware Approximate
09:21PM 18.8759 -83.0948 208° Southwest  Level FlightAware Approximate
09:22PM 18.7678 -83.1578 209° Southwest  Level FlightAware Approximate
09:23PM 18.6598 -83.2209 209° Southwest  Level FlightAware Approximate
09:24PM 18.5518 -83.2839 209° Southwest  Level FlightAware Approximate
09:25PM 18.4437 -83.3468 209° Southwest  Level FlightAware Approximate
09:26PM 18.3356 -83.4097 209° Southwest  Level FlightAware Approximate
09:27PM 18.2275 -83.4725 209° Southwest  Level FlightAware Approximate
09:28PM 18.1194 -83.5351 209° Southwest  Level FlightAware Approximate
09:29PM 18.0112 -83.5978 209° Southwest  Level FlightAware Approximate
09:30PM 17.9030 -83.6603 209° Southwest  Level FlightAware Approximate
09:31PM 17.7948 -83.7228 209° Southwest  Level FlightAware Approximate
09:32PM 17.6866 -83.7851 209° Southwest  Level FlightAware Approximate
09:33PM 17.5784 -83.8475 209° Southwest  Level FlightAware Approximate
09:34PM 17.4702 -83.9097 209° Southwest  Level FlightAware Approximate
09:35PM 17.3598 -83.9671 202° Southwest  Level FlightAware Approximate
09:36PM 17.2453 -84.0156 202° Southwest  Level FlightAware Approximate
09:37PM 17.1309 -84.0640 202° Southwest  Level FlightAware Approximate
09:38PM 17.0165 -84.1124 202° Southwest  Level FlightAware Approximate
09:39PM 16.9020 -84.1608 202° Southwest  Level FlightAware Approximate
09:40PM 16.7875 -84.2091 202° Southwest  Level FlightAware Approximate
09:41PM 16.6709 -84.2582 202° Southwest  Level FlightAware Approximate
09:42PM 16.5542 -84.3073 202° Southwest  Level FlightAware Approximate
09:43PM 16.4376 -84.3563 202° Southwest  Level FlightAware Approximate
09:44PM 16.3209 -84.4052 202° Southwest  Level FlightAware Approximate
09:45PM 16.2042 -84.4542 202° Southwest  Level FlightAware Approximate
09:46PM 16.0876 -84.5031 202° Southwest  Level FlightAware Approximate
09:47PM 15.9709 -84.5520 202° Southwest  Level FlightAware Approximate
09:48PM 15.8542 -84.6008 202° Southwest  Level FlightAware Approximate
09:49PM 15.7375 -84.6496 202° Southwest  Level FlightAware Approximate
09:50PM 15.6208 -84.6983 202° Southwest  Level FlightAware Approximate
09:51PM 15.5046 -84.7482 203° Southwest  Level FlightAware Approximate
09:52PM 15.3884 -84.7981 202° Southwest  Level FlightAware Approximate
09:53PM 15.2721 -84.8479 202° Southwest  Level FlightAware Approximate
09:54PM 15.1559 -84.8977 202° Southwest  Level FlightAware Approximate
09:55PM 15.0396 -84.9474 202° Southwest  Level FlightAware Approximate
09:56PM 14.9234 -84.9971 202° Southwest  Level FlightAware Approximate
09:57PM 14.8072 -85.0469 203° Southwest  Level FlightAware Approximate
09:58PM 14.6903 -85.0948 203° Southwest  Level FlightAware Approximate
09:59PM 14.5744 -85.1453 203° Southwest  Level FlightAware Approximate
10:00PM 14.4584 -85.1957 203° Southwest  Level FlightAware Approximate
10:01PM 14.3425 -85.2460 203° Southwest  Level FlightAware Approximate
10:02PM 14.2250 -85.2922 201° Southwest  Level FlightAware Approximate
10:03PM 14.1073 -85.3379 201° Southwest  Level FlightAware Approximate
10:04PM 13.9929 -85.3909 210° Southwest  Level FlightAware Approximate
10:05PM 13.8780 -85.4355 202° Southwest  Level FlightAware Approximate
10:06PM 13.7612 -85.4836 202° Southwest  Level FlightAware Approximate
10:07PM 13.6445 -85.5317 202° Southwest  Level FlightAware Approximate
10:08PM 13.5283 -85.5814 203° Southwest  Level FlightAware Approximate
10:09PM 13.4126 -85.6320 203° Southwest  Level FlightAware Approximate
10:10PM 13.2965 -85.6818 202° Southwest  Level FlightAware Approximate
10:11PM 13.1798 -85.7299 202° Southwest  Level FlightAware Approximate
10:12PM 13.0631 -85.7780 202° Southwest  Level FlightAware Approximate
10:13PM 12.9479 -85.8298 204° Southwest  Level FlightAware Approximate
10:14PM 12.8322 -85.8804 201° Southwest  Level FlightAware Approximate
10:15PM 12.7151 -85.9273 201° Southwest  Level FlightAware Approximate
10:16PM 12.5985 -85.9757 202° Southwest  Level FlightAware Approximate
10:17PM 12.4821 -86.0246 203° Southwest  Level FlightAware Approximate
10:18PM 12.3668 -86.0759 203° Southwest  Level FlightAware Approximate
10:19PM 12.2526 -86.1202 194° South  Level FlightAware Approximate
10:20PM 12.1356 -86.1655 206° Southwest  Level FlightAware Approximate
10:21PM 12.1415 -86.1682 44° Northeast  Level Estimated
10:22PM 12.1415 -86.1682 44° Northeast  Level Estimated
10:23PM 12.1415 -86.1682 44° Northeast  Level Estimated
10:24PM 12.1415 -86.1682 44° Northeast  Level Estimated
10:25PM 12.1415 -86.1682 44° Northeast  Level Estimated
10:26PM 12.1415 -86.1682 44° Northeast  Level Estimated
10:27PM 12.1415 -86.1682 44° Northeast  Level Estimated